Time;durP1;ratioP1;P1;durP2;ratioP2;P2;SDS_P1;SDS_P2;PMS_P1;PMS_P2;Temp;Humidity;BMP_temperature;BMP_pressure;BME280_temperature;BME280_humidity;BME280_pressure;Samples;Min_cycle;Max_cycle;Signal;HPM_P1;HPM_P2
2023/01/14 00:01:09;;;;;;;;;5.00;3.00;;;;;10.61;100.00;101431.34;5113184;27;45503;-89
2023/01/14 00:03:35;;;;;;;;;7.33;3.00;;;;;10.54;100.00;101416.75;5102748;27;45587;-86
2023/01/14 00:06:01;;;;;;;;;7.67;3.00;;;;;10.51;100.00;101406.13;5109724;27;45191;-85
2023/01/14 00:08:28;;;;;;;;;6.00;4.00;;;;;10.60;100.00;101424.19;5102766;27;45513;-87
2023/01/14 00:10:54;;;;;;;;;6.33;2.67;;;;;10.40;100.00;101380.94;5104014;27;45367;-85
2023/01/14 00:13:20;;;;;;;;;3.00;2.00;;;;;10.67;100.00;101418.78;5081781;27;46039;-88
2023/01/14 00:15:57;;;;;;;;;5.00;3.33;;;;;10.72;100.00;101411.66;5107582;27;47024;-88
2023/01/14 00:18:23;;;;;;;;;6.00;3.00;;;;;10.74;100.00;101409.56;5121385;27;45483;-88
2023/01/14 00:21:01;;;;;;;;;4.33;3.00;;;;;10.77;100.00;101398.22;5106432;27;45394;-87
2023/01/14 00:23:28;;;;;;;;;3.67;2.00;;;;;10.67;100.00;101372.97;5101359;27;45878;-86
2023/01/14 00:25:59;;;;;;;;;3.67;2.00;;;;;10.69;100.00;101361.81;5094412;27;46959;-87
2023/01/14 00:28:24;;;;;;;;;4.67;2.33;;;;;10.83;100.00;101374.63;5092543;27;45962;-86
2023/01/14 00:30:50;;;;;;;;;2.67;2.67;;;;;10.86;100.00;101373.41;5120572;27;45420;-88
2023/01/14 00:33:16;;;;;;;;;4.67;2.33;;;;;10.88;100.00;101371.31;5108163;27;46016;-86
2023/01/14 00:35:41;;;;;;;;;1.33;1.33;;;;;10.90;100.00;101377.47;5096331;27;45766;-86
2023/01/14 00:38:07;;;;;;;;;2.00;2.00;;;;;10.73;100.00;101336.56;5107137;27;44886;-87
2023/01/14 00:40:32;;;;;;;;;2.00;1.00;;;;;10.93;100.00;101358.69;5107373;27;45525;-86
2023/01/14 00:42:58;;;;;;;;;3.67;3.00;;;;;10.83;100.00;101335.38;5105493;27;45644;-85
2023/01/14 00:45:24;;;;;;;;;3.00;3.00;;;;;10.69;100.00;101313.31;5089192;27;45471;-85
2023/01/14 00:47:49;;;;;;;;;3.00;1.67;;;;;10.81;100.00;101342.94;5110879;27;45733;-86
2023/01/14 00:50:15;;;;;;;;;2.33;2.00;;;;;10.62;100.00;101317.03;5084380;27;45408;-84
2023/01/14 00:52:41;;;;;;;;;2.00;2.00;;;;;10.85;100.00;101338.78;5084812;27;45473;-85
2023/01/14 00:55:08;;;;;;;;;4.00;3.00;;;;;10.76;100.00;101321.59;5104596;27;45773;-85
2023/01/14 00:57:34;;;;;;;;;5.67;3.00;;;;;10.73;100.00;101311.88;5085626;27;45406;-88
2023/01/14 01:00:01;;;;;;;;;4.00;1.00;;;;;10.69;100.00;101318.78;5107525;27;45531;-86
2023/01/14 01:02:27;;;;;;;;;4.00;1.00;;;;;10.73;100.00;101324.72;5101948;27;46140;-86
2023/01/14 01:04:55;;;;;;;;;1.67;1.33;;;;;10.50;100.00;101292.00;5092116;27;46289;-86
2023/01/14 01:07:21;;;;;;;;;1.00;1.00;;;;;10.37;100.00;101276.25;5104864;27;44727;-86
2023/01/14 01:09:47;;;;;;;;;4.00;1.00;;;;;10.65;100.00;101306.50;5103431;27;45624;-85
2023/01/14 01:12:14;;;;;;;;;4.00;1.00;;;;;10.62;100.00;101301.41;5092425;27;45856;-88
2023/01/14 01:14:40;;;;;;;;;4.67;2.00;;;;;10.50;100.00;101279.13;5102965;27;45661;-86
2023/01/14 01:17:05;;;;;;;;;4.00;2.00;;;;;10.38;100.00;101267.84;5102579;27;45386;-86
2023/01/14 01:19:31;;;;;;;;;1.67;1.67;;;;;10.54;100.00;101293.31;5087267;27;45643;-86
2023/01/14 01:21:57;;;;;;;;;1.33;1.00;;;;;10.54;100.00;101293.31;5100258;27;45532;-85
2023/01/14 01:24:26;;;;;;;;;3.00;1.00;;;;;10.38;100.00;101269.72;5081583;27;47334;-87
2023/01/14 01:26:54;;;;;;;;;2.00;1.00;;;;;10.51;100.00;101289.06;5090786;27;45371;-87
2023/01/14 01:29:19;;;;;;;;;2.33;2.33;;;;;10.50;100.00;101276.38;5093830;27;45528;-88
2023/01/14 01:31:46;;;;;;;;;1.33;1.00;;;;;10.50;100.00;101270.06;5091433;27;45982;-86
2023/01/14 01:34:12;;;;;;;;;1.00;1.00;;;;;10.38;100.00;101250.53;5103471;27;45654;-87
2023/01/14 01:36:40;;;;;;;;;0.33;0.33;;;;;10.60;100.00;101274.19;5100662;27;45421;-85
2023/01/14 01:39:06;;;;;;;;;3.00;1.00;;;;;10.37;100.00;101237.88;5099993;27;45410;-85
2023/01/14 01:41:34;;;;;;;;;2.00;2.00;;;;;10.48;100.00;101250.19;5080221;27;46100;-85
2023/01/14 01:44:07;;;;;;;;;3.67;1.00;;;;;10.61;100.00;101275.00;5117883;27;45416;-87
2023/01/14 01:46:36;;;;;;;;;1.00;1.00;;;;;10.63;100.00;101288.53;5108363;27;45875;-87
2023/01/14 01:49:13;;;;;;;;;1.33;1.00;;;;;10.50;100.00;101270.06;5112230;27;44809;-87
2023/01/14 01:51:47;;;;;;;;;4.00;1.00;;;;;10.23;100.00;101224.00;5110385;27;45380;-88
2023/01/14 01:54:14;;;;;;;;;5.00;2.33;;;;;10.55;100.00;101262.09;5089301;27;48391;-86
2023/01/14 01:56:45;;;;;;;;;2.00;2.00;;;;;10.49;100.00;101254.66;5092008;27;45483;-86
2023/01/14 01:59:19;;;;;;;;;1.00;1.00;;;;;10.60;100.00;101256.88;5095152;27;45524;-86
2023/01/14 02:01:45;;;;;;;;;3.00;2.00;;;;;10.78;100.00;101265.47;5103311;27;45512;-86
2023/01/14 02:04:13;;;;;;;;;2.33;1.33;;;;;10.76;100.00;101253.88;5087762;27;45740;-87
2023/01/14 02:06:39;;;;;;;;;1.67;1.33;;;;;10.80;100.00;101242.50;5096073;27;45457;-87
2023/01/14 02:09:06;;;;;;;;;2.00;1.00;;;;;10.89;100.00;101255.84;5081001;27;45441;-88
2023/01/14 02:11:56;;;;;;;;;1.00;1.00;;;;;11.00;100.00;101248.97;5081706;27;46438;-88
2023/01/14 02:14:38;;;;;;;;;1.00;1.00;;;;;10.98;100.00;101234.59;5092905;27;47951;-88
2023/01/14 02:17:28;;;;;;;;;3.33;1.00;;;;;11.12;100.00;101233.66;5080629;27;45231;-87
2023/01/14 02:20:11;;;;;;;;;2.67;1.00;;;;;11.15;100.00;101232.41;5075700;27;45920;-84
2023/01/14 02:23:04;;;;;;;;;1.00;1.00;;;;;11.18;100.00;101217.44;5071558;27;46700;-88
2023/01/14 02:25:58;;;;;;;;;2.00;0.33;;;;;11.23;100.00;101217.69;5100318;27;46913;-88
2023/01/14 02:28:50;;;;;;;;;3.00;2.33;;;;;11.25;100.00;101212.84;5095949;27;45518;-85
2023/01/14 02:31:37;;;;;;;;;2.00;0.00;;;;;11.08;100.00;101180.22;5095258;27;45407;-86
2023/01/14 02:34:20;;;;;;;;;0.00;0.00;;;;;11.28;100.00;101217.91;5089702;27;45571;-88
2023/01/14 02:37:02;;;;;;;;;2.00;1.00;;;;;11.29;100.00;101211.38;5098644;27;45320;-88
2023/01/14 02:39:41;;;;;;;;;2.00;0.33;;;;;11.15;100.00;101179.41;5094961;27;45346;-85
2023/01/14 02:45:37;;;;;;;;;0.67;0.00;;;;;11.06;100.00;101159.50;5103173;27;45489;-87
2023/01/14 02:48:05;;;;;;;;;1.00;0.00;;;;;11.17;100.00;101164.44;5104415;27;46660;-85
2023/01/14 02:50:34;;;;;;;;;0.00;0.00;;;;;11.28;100.00;101179.47;5104159;27;44823;-86
2023/01/14 02:53:06;;;;;;;;;2.00;0.67;;;;;11.41;100.00;101212.50;5101660;27;45554;-85
2023/01/14 02:55:36;;;;;;;;;0.33;0.33;;;;;11.21;100.00;101173.09;5094946;27;45421;-86
2023/01/14 02:58:07;;;;;;;;;1.00;0.00;;;;;11.43;100.00;101191.16;5083988;27;46387;-85
2023/01/14 03:00:48;;;;;;;;;1.67;1.00;;;;;11.40;100.00;101174.25;5108870;27;45532;-86
2023/01/14 03:03:51;;;;;;;;;1.00;0.00;;;;;11.37;100.00;101163.69;5091840;27;45375;-87
2023/01/14 03:06:16;;;;;;;;;0.00;0.00;;;;;11.44;100.00;101179.13;5081723;27;45530;-86
2023/01/14 03:08:53;;;;;;;;;1.33;1.00;;;;;11.44;100.00;101179.13;5110202;27;45387;-86
2023/01/14 03:11:22;;;;;;;;;1.00;1.00;;;;;11.25;100.00;101146.94;5113536;27;44758;-85
2023/01/14 03:14:03;;;;;;;;;2.00;2.00;;;;;11.44;100.00;101162.66;5091528;27;45810;-86
2023/01/14 03:16:35;;;;;;;;;2.00;1.00;;;;;11.47;100.00;101151.25;5074200;27;46259;-85
2023/01/14 03:19:14;;;;;;;;;1.33;1.00;;;;;11.49;100.00;101142.81;5090872;27;48215;-88
2023/01/14 03:21:46;;;;;;;;;1.67;0.00;;;;;11.51;100.00;101139.88;5104500;27;45475;-85
2023/01/14 03:24:29;;;;;;;;;1.67;1.00;;;;;11.49;100.00;101132.66;5103643;27;45529;-84
2023/01/14 03:26:59;;;;;;;;;1.00;0.00;;;;;11.39;100.00;101102.03;5106697;27;45668;-85
2023/01/14 03:29:34;;;;;;;;;5.33;1.00;;;;;11.41;100.00;101097.16;5107288;27;45674;-83
2023/01/14 03:32:11;;;;;;;;;3.00;0.00;;;;;11.40;100.00;101084.47;5107498;27;45387;-86
2023/01/14 03:34:43;;;;;;;;;2.67;0.33;;;;;11.47;100.00;101090.84;5099188;27;45582;-83
2023/01/14 03:37:13;;;;;;;;;3.67;1.33;;;;;11.52;100.00;101081.97;5102464;27;45249;-86
2023/01/14 03:39:43;;;;;;;;;2.67;1.00;;;;;11.37;100.00;101062.06;5106078;27;45508;-83
2023/01/14 03:42:20;;;;;;;;;3.00;1.00;;;;;11.45;100.00;101064.63;5102561;27;45536;-81
2023/01/14 03:45:10;;;;;;;;;2.67;1.00;;;;;11.47;100.00;101073.53;5112026;27;45371;-83
2023/01/14 03:47:37;;;;;;;;;1.67;1.00;;;;;11.37;100.00;101046.44;5096507;27;44819;-85
2023/01/14 03:50:10;;;;;;;;;2.00;0.67;;;;;11.44;100.00;101060.22;5112988;27;45441;-86
2023/01/14 03:52:57;;;;;;;;;3.00;1.33;;;;;11.43;100.00;101066.75;5105314;27;44802;-85
2023/01/14 03:55:37;;;;;;;;;1.00;1.00;;;;;11.37;100.00;101051.09;5119315;27;45081;-80
2023/01/14 03:58:21;;;;;;;;;1.33;0.67;;;;;11.42;100.00;101043.06;5079036;27;45865;-80
2023/01/14 04:00:54;;;;;;;;;1.00;1.00;;;;;11.51;100.00;101047.31;5096064;27;45705;-78
2023/01/14 04:03:20;;;;;;;;;2.00;2.00;;;;;11.40;100.00;101023.22;5095998;27;45546;-80
2023/01/14 04:05:46;;;;;;;;;1.33;1.00;;;;;11.36;100.00;101013.69;5091068;27;45434;-79
2023/01/14 04:08:11;;;;;;;;;1.67;0.00;;;;;11.39;100.00;100996.81;5084174;27;45750;-80
2023/01/14 04:10:37;;;;;;;;;4.00;0.00;;;;;11.52;100.00;101017.97;5108781;27;46124;-79
2023/01/14 04:15:46;;;;;;;;;1.33;1.33;;;;;11.61;100.00;100998.31;5098929;27;45435;-78
2023/01/14 04:18:12;;;;;;;;;2.00;1.00;;;;;11.57;100.00;100985.22;5073134;27;45985;-78
2023/01/14 04:20:37;;;;;;;;;1.00;1.00;;;;;11.64;100.00;100986.06;5107243;27;46177;-79
2023/01/14 04:23:03;;;;;;;;;2.67;1.00;;;;;11.61;100.00;100990.06;5094376;27;45528;-78
2023/01/14 04:25:28;;;;;;;;;1.00;1.00;;;;;11.62;100.00;100993.69;5100204;27;45630;-80
2023/01/14 04:27:53;;;;;;;;;0.00;0.00;;;;;11.47;100.00;100956.25;5095775;27;45501;-80
2023/01/14 04:30:19;;;;;;;;;3.33;1.67;;;;;11.59;100.00;100969.38;5081560;27;46011;-77
2023/01/14 04:32:45;;;;;;;;;4.33;1.00;;;;;11.60;100.00;100979.28;5101439;27;45729;-78
2023/01/14 04:35:11;;;;;;;;;7.67;3.00;;;;;11.63;100.00;100978.88;5090894;27;45652;-79
2023/01/14 04:37:36;;;;;;;;;2.00;2.00;;;;;11.48;100.00;100952.47;5075163;27;45841;-79
2023/01/14 04:40:03;;;;;;;;;3.67;3.00;;;;;11.67;100.00;100988.38;5075406;27;47369;-78
2023/01/14 04:42:28;;;;;;;;;2.67;1.00;;;;;11.68;100.00;100970.88;5094670;27;45371;-82
2023/01/14 04:45:00;;;;;;;;;4.67;1.00;;;;;11.69;100.00;100972.56;5097041;27;45710;-81
2023/01/14 04:47:27;;;;;;;;;1.00;1.00;;;;;11.52;100.00;100955.63;5104986;27;46005;-81
2023/01/14 04:49:53;;;;;;;;;5.33;4.00;;;;;11.44;100.00;100931.13;5078111;27;45545;-83
2023/01/14 04:52:22;;;;;;;;;7.00;1.00;;;;;11.64;100.00;100962.19;5114466;27;45443;-85
2023/01/14 04:54:48;;;;;;;;;3.33;2.67;;;;;11.63;100.00;100956.91;5108697;27;45483;-86
2023/01/14 04:57:14;;;;;;;;;2.67;1.00;;;;;11.63;100.00;100945.91;5116801;27;45539;-84
2023/01/14 04:59:44;;;;;;;;;7.00;1.67;;;;;11.33;100.00;100891.38;5110232;27;47156;-86
2023/01/14 05:02:13;;;;;;;;;6.67;4.00;;;;;11.54;100.00;100919.72;5090185;27;45511;-84
2023/01/14 05:04:40;;;;;;;;;3.00;2.00;;;;;11.68;100.00;100926.03;5114269;27;45539;-83
2023/01/14 05:07:06;;;;;;;;;5.00;1.00;;;;;11.65;100.00;100922.66;5080360;27;45977;-82
2023/01/14 05:09:31;;;;;;;;;6.67;3.33;;;;;11.74;100.00;100942.53;5109862;27;45406;-83
2023/01/14 05:11:57;;;;;;;;;4.00;3.00;;;;;11.75;100.00;100922.25;5102018;27;45540;-83
2023/01/14 05:14:25;;;;;;;;;1.33;1.33;;;;;11.61;100.00;100902.16;5087641;27;45730;-85
2023/01/14 05:16:51;;;;;;;;;4.00;2.67;;;;;11.78;100.00;100923.72;5107006;27;44894;-85
2023/01/14 05:19:18;;;;;;;;;1.67;1.67;;;;;11.72;100.00;100911.69;5075957;27;45475;-83
2023/01/14 05:21:44;;;;;;;;;5.00;3.00;;;;;11.49;100.00;100863.50;5098594;27;45298;-84
2023/01/14 05:24:10;;;;;;;;;4.00;3.00;;;;;11.72;100.00;100889.72;5104157;27;44817;-84
2023/01/14 05:26:40;;;;;;;;;6.00;1.67;;;;;11.80;100.00;100900.47;5104375;27;46560;-82
2023/01/14 05:29:09;;;;;;;;;3.67;2.33;;;;;11.82;100.00;100903.84;5076520;27;47955;-84
2023/01/14 05:31:34;;;;;;;;;2.00;2.00;;;;;11.67;100.00;100870.25;5084439;27;45490;-83
2023/01/14 05:34:00;;;;;;;;;4.00;2.00;;;;;11.88;100.00;100904.91;5101322;27;45949;-83
2023/01/14 05:36:25;;;;;;;;;3.67;1.67;;;;;11.87;100.00;100875.75;5098444;27;45939;-83
2023/01/14 05:38:51;;;;;;;;;5.33;4.33;;;;;11.90;100.00;100860.69;5104894;27;45859;-83
2023/01/14 05:41:16;;;;;;;;;3.00;2.00;;;;;11.86;100.00;100856.72;5100592;27;45891;-82
2023/01/14 05:46:34;;;;;;;;;4.67;1.00;;;;;11.84;100.00;100835.78;5099348;27;45828;-82
2023/01/14 05:49:00;;;;;;;;;3.00;2.00;;;;;11.86;100.00;100832.81;5077506;27;46904;-84
2023/01/14 05:51:26;;;;;;;;;1.33;1.00;;;;;11.91;100.00;100844.00;5097524;27;45420;-83
2023/01/14 05:53:52;;;;;;;;;3.33;1.67;;;;;11.74;100.00;100820.81;5102877;27;45548;-82
2023/01/14 05:56:18;;;;;;;;;6.33;3.67;;;;;11.87;100.00;100829.03;5085644;27;45977;-84
2023/01/14 05:58:45;;;;;;;;;3.33;2.33;;;;;11.84;100.00;100833.03;5112866;27;46062;-85
2023/01/14 06:07:04;;;;;;;;;4.00;1.00;;;;;11.80;100.00;100812.53;5111256;27;45742;-85
2023/01/14 06:09:30;;;;;;;;;5.00;3.00;;;;;11.81;100.00;100814.25;5088543;27;46641;-81
2023/01/14 06:12:05;;;;;;;;;6.67;2.00;;;;;11.65;100.00;100762.50;5080150;27;45420;-81
2023/01/14 06:14:34;;;;;;;;;1.00;1.00;;;;;11.72;100.00;100779.81;5091664;27;45991;-81
2023/01/14 06:17:08;;;;;;;;;2.33;1.33;;;;;11.73;100.00;100775.16;5097530;27;46856;-83
2023/01/14 06:19:33;;;;;;;;;3.00;1.00;;;;;11.55;100.00;100743.72;5086107;27;48084;-82
2023/01/14 06:21:59;;;;;;;;;0.67;0.67;;;;;11.65;100.00;100768.00;5112161;27;45840;-81
2023/01/14 06:24:24;;;;;;;;;3.67;1.33;;;;;11.63;100.00;100773.72;5111705;27;45474;-81
2023/01/14 06:26:50;;;;;;;;;2.33;2.00;;;;;11.62;100.00;100776.66;5091162;27;46246;-81
2023/01/14 06:29:15;;;;;;;;;3.67;2.00;;;;;11.56;100.00;100747.31;5108585;27;45357;-82
2023/01/14 06:31:43;;;;;;;;;3.00;2.00;;;;;11.68;100.00;100778.56;5086081;27;45761;-81
2023/01/14 06:34:12;;;;;;;;;2.33;1.33;;;;;11.69;100.00;100758.28;5087069;27;45860;-83
2023/01/14 06:36:38;;;;;;;;;3.00;1.00;;;;;11.66;100.00;100751.28;5104546;27;45630;-83
2023/01/14 06:39:04;;;;;;;;;2.00;1.00;;;;;11.57;100.00;100732.50;5087633;27;46110;-81
2023/01/14 06:41:42;;;;;;;;;1.00;1.00;;;;;11.52;100.00;100729.56;5107732;27;45559;-88
2023/01/14 06:44:08;;;;;;;;;5.00;3.00;;;;;11.43;100.00;100707.00;5103806;27;45466;-87
2023/01/14 06:46:44;;;;;;;;;4.33;1.00;;;;;11.59;100.00;100730.41;5106074;27;45462;-86
2023/01/14 06:49:15;;;;;;;;;4.00;2.00;;;;;11.52;100.00;100729.56;5077063;27;45876;-83
2023/01/14 06:52:30;;;;;;;;;1.67;1.33;;;;;11.49;100.00;100731.69;5097226;27;45899;-86
2023/01/14 06:55:20;;;;;;;;;3.00;2.00;;;;;11.40;100.00;100700.03;5082020;27;45908;-85
2023/01/14 06:57:49;;;;;;;;;4.67;1.00;;;;;11.27;100.00;100684.44;5098083;27;45903;-84
2023/01/14 07:00:26;;;;;;;;;8.33;2.67;;;;;11.59;100.00;100733.97;5077068;27;45707;-85
2023/01/14 07:02:52;;;;;;;;;3.33;1.00;;;;;11.61;100.00;100728.28;5086174;27;45733;-82
2023/01/14 07:05:17;;;;;;;;;5.00;3.33;;;;;11.48;100.00;100685.19;5096969;27;46178;-84
2023/01/14 07:07:50;;;;;;;;;1.00;1.00;;;;;11.47;100.00;100689.03;5082561;27;46294;-84
2023/01/14 07:10:20;;;;;;;;;10.00;5.33;;;;;11.53;100.00;100698.31;5092426;27;46914;-83
2023/01/14 07:12:58;;;;;;;;;4.67;3.00;;;;;11.43;100.00;100650.16;5098663;27;45763;-82
2023/01/14 07:15:25;;;;;;;;;3.00;2.00;;;;;11.60;100.00;100682.63;5100645;27;45910;-84
2023/01/14 07:18:13;;;;;;;;;4.67;4.67;;;;;11.48;100.00;100671.47;5102618;27;45564;-84
2023/01/14 07:20:42;;;;;;;;;4.33;1.00;;;;;11.76;100.00;100717.03;5087295;27;45967;-83
2023/01/14 07:23:13;;;;;;;;;3.33;2.00;;;;;11.61;100.00;100673.34;5103700;27;45993;-83
2023/01/14 07:25:49;;;;;;;;;5.00;2.67;;;;;11.76;100.00;100671.16;5100876;27;45562;-83
2023/01/14 07:28:20;;;;;;;;;8.33;2.67;;;;;11.60;100.00;100656.03;5080689;27;45554;-83
2023/01/14 07:30:48;;;;;;;;;5.00;2.00;;;;;11.72;100.00;100666.31;5102079;27;45703;-84
2023/01/14 07:34:41;;;;;;;;;5.00;2.00;;;;;11.74;100.00;100662.28;5074735;27;45888;-83
2023/01/14 07:36:48;;;;;;;;;1.00;1.00;;;;;11.46;100.00;100605.78;5088865;27;45525;-85
2023/01/14 07:39:14;;;;;;;;;1.00;0.00;;;;;11.59;100.00;100646.09;5077381;27;45930;-84
2023/01/14 07:41:40;;;;;;;;;3.00;2.00;;;;;11.56;100.00;100632.78;5083127;27;47115;-83
2023/01/14 07:44:05;;;;;;;;;1.00;1.00;;;;;11.54;100.00;100623.06;5100047;27;45703;-85
2023/01/14 07:46:32;;;;;;;;;2.50;2.50;;;;;11.67;100.00;100628.50;5088318;27;45520;-82
2023/01/14 07:48:58;;;;;;;;;3.00;1.33;;;;;11.69;100.00;100631.03;5080746;27;46232;-82
2023/01/14 07:51:23;;;;;;;;;5.00;3.00;;;;;11.69;100.00;100623.66;5091440;27;46932;-81
2023/01/14 07:53:49;;;;;;;;;2.33;1.33;;;;;11.60;100.00;100611.22;5102676;27;45920;-80
2023/01/14 07:56:15;;;;;;;;;5.00;1.00;;;;;11.73;100.00;100616.63;5092247;27;45077;-80
2023/01/14 07:58:41;;;;;;;;;2.00;0.00;;;;;11.68;100.00;100610.97;5102570;27;45523;-82
2023/01/14 08:01:09;;;;;;;;;3.00;1.67;;;;;11.72;100.00;100625.09;5091232;27;46675;-83
2023/01/14 08:03:36;;;;;;;;;0.00;0.00;;;;;11.72;100.00;100609.47;5070760;27;45811;-81
2023/01/14 08:06:05;;;;;;;;;3.67;2.00;;;;;11.64;100.00;100590.50;5084379;27;46014;-79
2023/01/14 08:08:34;;;;;;;;;1.00;0.00;;;;;11.57;100.00;100579.56;5093823;27;45347;-81
2023/01/14 08:11:01;;;;;;;;;2.33;0.67;;;;;11.67;100.00;100584.56;5098540;27;45524;-82
2023/01/14 08:13:27;;;;;;;;;1.00;1.00;;;;;11.58;100.00;100581.22;5087290;27;45927;-83
2023/01/14 08:16:03;;;;;;;;;2.67;0.67;;;;;11.73;100.00;100599.31;5099832;27;45150;-82
2023/01/14 08:18:35;;;;;;;;;1.67;1.67;;;;;11.74;100.00;100576.28;5096364;27;44800;-82
2023/01/14 08:21:08;;;;;;;;;4.00;1.33;;;;;11.78;100.00;100572.88;5101308;27;46661;-81
2023/01/14 08:23:34;;;;;;;;;3.00;0.00;;;;;11.81;100.00;100594.41;5095040;27;46194;-83
2023/01/14 08:26:04;;;;;;;;;0.67;0.67;;;;;11.72;100.00;100582.00;5077682;27;45820;-82
2023/01/14 08:28:30;;;;;;;;;4.00;1.00;;;;;11.68;100.00;100557.91;5099677;27;45425;-83
2023/01/14 08:31:06;;;;;;;;;3.67;0.33;;;;;11.67;100.00;100540.59;5111330;27;45898;-86
2023/01/14 08:33:36;;;;;;;;;0.00;0.00;;;;;11.84;100.00;100566.50;5082497;27;45784;-87
2023/01/14 08:36:16;;;;;;;;;1.33;0.67;;;;;11.75;100.00;100543.09;5079423;27;45792;-85
2023/01/14 08:38:44;;;;;;;;;1.67;1.67;;;;;11.82;100.00;100565.84;5079509;27;45811;-83
2023/01/14 08:41:13;;;;;;;;;1.00;1.00;;;;;11.84;100.00;100569.25;5074477;28;46269;-84
2023/01/14 08:44:04;;;;;;;;;1.67;1.67;;;;;11.73;100.00;100531.47;5079321;27;45408;-84
2023/01/14 08:46:43;;;;;;;;;4.00;2.00;;;;;11.92;100.00;100567.28;5097088;27;44833;-84
2023/01/14 08:49:16;;;;;;;;;0.00;0.00;;;;;11.90;100.00;100555.66;5093764;27;45640;-82
2023/01/14 08:51:49;;;;;;;;;4.00;2.00;;;;;11.96;100.00;100549.31;5073215;27;47040;-83
2023/01/14 08:54:14;;;;;;;;;1.00;1.00;;;;;11.84;100.00;100533.53;5076439;27;46017;-84
2023/01/14 08:56:40;;;;;;;;;3.00;3.00;;;;;11.90;100.00;100540.03;5073856;27;45506;-83
2023/01/14 08:59:06;;;;;;;;;1.00;1.00;;;;;11.96;100.00;100552.06;5076029;27;47159;-82
2023/01/14 09:01:32;;;;;;;;;3.00;2.00;;;;;11.90;100.00;100541.94;5070945;27;46616;-82
2023/01/14 09:04:04;;;;;;;;;1.00;1.00;;;;;12.03;100.00;100538.28;5089197;27;45800;-84
2023/01/14 09:06:30;;;;;;;;;2.33;1.00;;;;;12.16;100.00;100527.16;5094274;27;45464;-82
2023/01/14 09:17:30;;;;;;;;;1.67;0.67;;;;;12.37;100.00;100512.16;5098006;27;45523;-83
2023/01/14 09:20:00;;;;;;;;;2.00;2.00;;;;;12.29;100.00;100482.19;5098715;27;45736;-85
2023/01/14 09:22:30;;;;;;;;;0.67;0.67;;;;;12.28;100.00;100472.28;5082485;27;45744;-86
2023/01/14 09:25:02;;;;;;;;;1.00;1.00;;;;;12.28;100.00;100466.78;5094577;27;45469;-84
2023/01/14 09:27:30;;;;;;;;;0.00;0.00;;;;;12.47;100.00;100482.25;5102354;27;45448;-84
2023/01/14 09:30:06;;;;;;;;;4.33;1.33;;;;;12.48;100.00;100475.66;5080715;27;45847;-83
2023/01/14 09:32:49;;;;;;;;;;;;;;;;;;;;;
2023/01/14 09:35:27;;;;;;;;;2.00;1.00;;;;;12.36;100.00;100449.97;5055146;27;73738;-83
2023/01/14 09:38:18;;;;;;;;;1.33;0.33;;;;;12.63;100.00;100494.53;5120444;27;45546;-83
2023/01/14 09:40:44;;;;;;;;;1.00;0.00;;;;;12.68;100.00;100493.88;5065363;27;45384;-82
2023/01/14 09:43:29;;;;;;;;;4.00;1.67;;;;;12.52;100.00;100457.63;5097437;27;47332;-83
2023/01/14 09:46:01;;;;;;;;;1.67;1.67;;;;;12.75;100.00;100499.28;5106012;27;45889;-82
2023/01/14 09:48:49;;;;;;;;;0.33;0.00;;;;;12.68;100.00;100463.59;5088939;27;45490;-82
2023/01/14 09:52:12;;;;;;;;;0.00;0.00;;;;;12.75;100.00;100475.34;5105880;27;45708;-84
2023/01/14 09:55:10;;;;;;;;;1.00;0.00;;;;;12.76;100.00;100462.44;5112912;27;46050;-86
2023/01/14 09:57:53;;;;;;;;;0.33;0.33;;;;;12.65;100.00;100450.28;5100038;27;45459;-82
2023/01/14 10:00:40;;;;;;;;;1.67;0.33;;;;;12.86;100.00;100455.31;5097825;27;45358;-86
2023/01/14 10:03:22;;;;;;;;;2.00;0.00;;;;;12.91;100.00;100437.28;5096069;27;45884;-84
2023/01/14 10:05:59;;;;;;;;;1.33;1.33;;;;;12.96;100.00;100456.69;5090762;27;46651;-85
2023/01/14 10:08:31;;;;;;;;;2.00;0.67;;;;;13.01;100.00;100465.09;5089672;27;45466;-83
2023/01/14 10:10:56;;;;;;;;;2.33;0.33;;;;;12.84;100.00;100409.84;5105579;27;45390;-83
2023/01/14 10:13:37;;;;;;;;;1.00;0.33;;;;;13.05;100.00;100441.53;5091678;27;45583;-85
2023/01/14 10:16:27;;;;;;;;;3.00;1.67;;;;;13.07;100.00;100439.38;5094236;27;46393;-85
2023/01/14 10:19:10;;;;;;;;;2.33;1.00;;;;;12.87;100.00;100396.47;5092588;27;45556;-85
2023/01/14 10:21:49;;;;;;;;;2.33;1.00;;;;;13.14;100.00;100423.59;5081462;27;46855;-83
2023/01/14 10:24:18;;;;;;;;;1.33;1.33;;;;;13.02;100.00;100396.03;5094684;27;45626;-84
2023/01/14 10:26:47;;;;;;;;;0.67;0.67;;;;;13.09;100.00;100412.44;5078799;27;46231;-85
2023/01/14 10:29:18;;;;;;;;;1.00;1.00;;;;;13.07;100.00;100398.94;5083310;27;45433;-84
2023/01/14 10:31:58;;;;;;;;;4.67;1.33;;;;;13.20;100.00;100432.84;5101975;27;45844;-83
2023/01/14 10:34:36;;;;;;;;;2.33;0.33;;;;;13.07;100.00;100406.34;5096586;27;45559;-84
2023/01/14 10:37:02;;;;;;;;;0.00;0.00;;;;;13.05;100.00;100397.47;5079055;27;47376;-85
2023/01/14 10:39:28;;;;;;;;;1.00;1.00;;;;;13.06;100.00;100402.75;5094524;27;45878;-84
2023/01/14 10:42:00;;;;;;;;;2.67;1.33;;;;;13.03;100.00;100383.13;5073793;27;45605;-82
2023/01/14 10:44:38;;;;;;;;;2.00;2.00;;;;;13.08;100.00;100399.75;5094563;27;45603;-84
2023/01/14 10:47:10;;;;;;;;;2.67;0.67;;;;;13.14;100.00;100411.75;5092499;27;45785;-82
2023/01/14 10:49:49;;;;;;;;;1.33;0.67;;;;;13.05;100.00;100375.44;5094455;27;45923;-81
2023/01/14 10:52:31;;;;;;;;;3.33;2.33;;;;;13.03;100.00;100358.34;5096010;27;45877;-81
2023/01/14 10:55:06;;;;;;;;;0.67;0.67;;;;;13.17;100.00;100390.13;5082700;27;46116;-82
2023/01/14 10:57:47;;;;;;;;;2.00;2.00;;;;;13.09;100.00;100384.91;5076484;27;47198;-85
2023/01/14 11:00:29;;;;;;;;;1.67;1.33;;;;;13.19;100.00;100387.94;5092118;27;46671;-83
2023/01/14 11:02:57;;;;;;;;;1.00;1.00;;;;;13.21;100.00;100387.72;5088249;27;45794;-83
2023/01/14 11:05:55;;;;;;;;;2.67;1.67;;;;;13.17;100.00;100373.59;5092265;27;45427;-83
2023/01/14 11:08:37;;;;;;;;;3.00;2.00;;;;;13.11;100.00;100352.47;5087609;27;45895;-85
2023/01/14 11:11:17;;;;;;;;;0.67;0.67;;;;;12.84;100.00;100308.88;5075437;27;45520;-82
2023/01/14 11:13:53;;;;;;;;;3.67;2.00;;;;;13.12;100.00;100350.59;5075374;27;45418;-84
2023/01/14 11:16:21;;;;;;;;;3.00;1.00;;;;;13.18;100.00;100349.63;5094230;27;45547;-83
2023/01/14 11:19:11;;;;;;;;;1.67;1.67;;;;;13.19;100.00;100343.06;5094237;27;46161;-81
2023/01/14 11:21:42;;;;;;;;;0.67;0.00;;;;;13.10;100.00;100333.44;5092380;27;45592;-80
2023/01/14 11:24:35;;;;;;;;;2.67;0.67;;;;;13.12;100.00;100326.63;5098851;27;45736;-82
2023/01/14 11:27:20;;;;;;;;;1.33;1.33;;;;;13.04;100.00;100304.97;5088918;27;45656;-81
2023/01/14 11:29:54;;;;;;;;;2.00;2.00;;;;;12.88;100.00;100270.69;5084283;27;47858;-81
2023/01/14 11:32:33;;;;;;;;;4.33;3.00;;;;;13.14;100.00;100310.69;5089838;27;45857;-84
2023/01/14 11:35:06;;;;;;;;;2.00;2.00;;;;;13.12;100.00;100304.59;5073169;27;45767;-83
2023/01/14 11:37:38;;;;;;;;;1.33;0.33;;;;;12.94;100.00;100278.00;5082107;27;45859;-84
2023/01/14 11:40:06;;;;;;;;;2.00;2.00;;;;;13.02;100.00;100285.94;5071548;27;47318;-83
2023/01/14 11:43:04;;;;;;;;;2.33;2.00;;;;;13.02;100.00;100291.44;5101528;27;45820;-83
2023/01/14 11:45:30;;;;;;;;;1.00;1.00;;;;;13.09;100.00;100293.25;5084061;27;45517;-83
2023/01/14 11:47:57;;;;;;;;;1.00;1.00;;;;;13.07;100.00;100288.81;5080023;27;45524;-83
2023/01/14 11:50:28;;;;;;;;;0.33;0.33;;;;;12.72;100.00;100228.19;5110449;27;45880;-85
2023/01/14 11:53:08;;;;;;;;;1.67;1.67;;;;;12.71;100.00;100212.75;5102932;27;45922;-81
2023/01/14 11:55:39;;;;;;;;;6.00;6.00;;;;;12.93;100.00;100223.19;5077599;27;45604;-84
2023/01/14 11:58:16;;;;;;;;;2.33;2.33;;;;;12.83;100.00;100230.13;5089542;27;45946;-82
2023/01/14 12:00:54;;;;;;;;;1.00;0.00;;;;;12.97;100.00;100230.75;5097959;27;45876;-83
2023/01/14 12:03:45;;;;;;;;;10.00;7.67;;;;;13.02;100.00;100227.25;5085976;27;45520;-83
2023/01/14 12:06:18;;;;;;;;;1.67;1.67;;;;;13.20;100.00;100234.56;5100204;27;45742;-81